sensor_id;sensor_type;location;lat;lon;timestamp;P1;durP1;ratioP1;P2;durP2;ratioP2
1262;SDS011;62267;50.112;8.704;2022-12-11T00:00:15;36.20;;;22.30;;
1262;SDS011;62267;50.112;8.704;2022-12-11T00:02:42;38.73;;;21.90;;
1262;SDS011;62267;50.112;8.704;2022-12-11T00:05:11;35.77;;;20.90;;
1262;SDS011;62267;50.112;8.704;2022-12-11T00:07:38;29.03;;;19.73;;
1262;SDS011;62267;50.112;8.704;2022-12-11T00:10:06;36.50;;;21.80;;
1262;SDS011;62267;50.112;8.704;2022-12-11T00:12:33;47.83;;;22.73;;
1262;SDS011;62267;50.112;8.704;2022-12-11T00:15:01;39.70;;;21.80;;
1262;SDS011;62267;50.112;8.704;2022-12-11T00:17:28;35.20;;;21.10;;
1262;SDS011;62267;50.112;8.704;2022-12-11T00:19:56;36.50;;;22.17;;
1262;SDS011;62267;50.112;8.704;2022-12-11T00:22:23;36.10;;;20.00;;
1262;SDS011;62267;50.112;8.704;2022-12-11T00:24:51;33.67;;;24.00;;
1262;SDS011;62267;50.112;8.704;2022-12-11T00:27:18;34.80;;;20.53;;
1262;SDS011;62267;50.112;8.704;2022-12-11T00:29:46;39.30;;;23.67;;
1262;SDS011;62267;50.112;8.704;2022-12-11T00:32:13;33.40;;;21.07;;
1262;SDS011;62267;50.112;8.704;2022-12-11T00:34:41;34.90;;;21.63;;
1262;SDS011;62267;50.112;8.704;2022-12-11T00:37:08;33.53;;;19.57;;
1262;SDS011;62267;50.112;8.704;2022-12-11T00:39:36;32.27;;;20.50;;
1262;SDS011;62267;50.112;8.704;2022-12-11T00:42:06;37.83;;;20.57;;
1262;SDS011;62267;50.112;8.704;2022-12-11T00:44:34;36.27;;;20.17;;
1262;SDS011;62267;50.112;8.704;2022-12-11T00:47:02;35.27;;;19.73;;
1262;SDS011;62267;50.112;8.704;2022-12-11T00:49:29;33.60;;;21.43;;
1262;SDS011;62267;50.112;8.704;2022-12-11T00:51:57;33.70;;;21.97;;
1262;SDS011;62267;50.112;8.704;2022-12-11T00:54:24;36.10;;;22.53;;
1262;SDS011;62267;50.112;8.704;2022-12-11T00:56:53;32.20;;;19.73;;
1262;SDS011;62267;50.112;8.704;2022-12-11T00:59:21;33.37;;;20.47;;
1262;SDS011;62267;50.112;8.704;2022-12-11T01:01:51;37.50;;;20.77;;
1262;SDS011;62267;50.112;8.704;2022-12-11T01:04:18;28.93;;;19.13;;
1262;SDS011;62267;50.112;8.704;2022-12-11T01:06:46;34.43;;;21.37;;
1262;SDS011;62267;50.112;8.704;2022-12-11T01:09:13;31.30;;;20.03;;
1262;SDS011;62267;50.112;8.704;2022-12-11T01:11:59;33.77;;;21.50;;
1262;SDS011;62267;50.112;8.704;2022-12-11T01:14:27;39.17;;;21.90;;
1262;SDS011;62267;50.112;8.704;2022-12-11T01:16:54;36.97;;;21.13;;
1262;SDS011;62267;50.112;8.704;2022-12-11T01:19:22;36.67;;;20.93;;
1262;SDS011;62267;50.112;8.704;2022-12-11T01:21:49;35.40;;;20.23;;
1262;SDS011;62267;50.112;8.704;2022-12-11T01:24:16;36.70;;;20.50;;
1262;SDS011;62267;50.112;8.704;2022-12-11T01:26:44;33.60;;;19.90;;
1262;SDS011;62267;50.112;8.704;2022-12-11T01:29:11;31.87;;;20.10;;
1262;SDS011;62267;50.112;8.704;2022-12-11T01:31:39;36.37;;;22.60;;
1262;SDS011;62267;50.112;8.704;2022-12-11T01:34:09;41.83;;;21.63;;
1262;SDS011;62267;50.112;8.704;2022-12-11T01:36:37;34.03;;;18.90;;
1262;SDS011;62267;50.112;8.704;2022-12-11T01:39:06;36.37;;;20.50;;
1262;SDS011;62267;50.112;8.704;2022-12-11T01:41:34;35.57;;;20.60;;
1262;SDS011;62267;50.112;8.704;2022-12-11T01:46:41;34.80;;;20.00;;
1262;SDS011;62267;50.112;8.704;2022-12-11T01:49:10;35.13;;;20.77;;
1262;SDS011;62267;50.112;8.704;2022-12-11T01:51:49;34.27;;;20.73;;
1262;SDS011;62267;50.112;8.704;2022-12-11T01:54:18;39.97;;;20.97;;
1262;SDS011;62267;50.112;8.704;2022-12-11T01:56:47;35.63;;;21.53;;
1262;SDS011;62267;50.112;8.704;2022-12-11T01:59:17;37.37;;;20.60;;
1262;SDS011;62267;50.112;8.704;2022-12-11T02:01:47;35.33;;;20.40;;
1262;SDS011;62267;50.112;8.704;2022-12-11T02:04:16;35.67;;;21.30;;
1262;SDS011;62267;50.112;8.704;2022-12-11T02:06:46;39.27;;;24.27;;
1262;SDS011;62267;50.112;8.704;2022-12-11T02:09:15;37.57;;;20.97;;
1262;SDS011;62267;50.112;8.704;2022-12-11T02:19:37;36.33;;;21.83;;
1262;SDS011;62267;50.112;8.704;2022-12-11T02:22:12;33.97;;;19.33;;
1262;SDS011;62267;50.112;8.704;2022-12-11T02:27:26;33.80;;;19.57;;
1262;SDS011;62267;50.112;8.704;2022-12-11T02:30:04;35.10;;;21.33;;
1262;SDS011;62267;50.112;8.704;2022-12-11T02:35:05;38.03;;;20.40;;
1262;SDS011;62267;50.112;8.704;2022-12-11T02:37:35;40.27;;;22.50;;
1262;SDS011;62267;50.112;8.704;2022-12-11T02:40:04;32.20;;;19.23;;
1262;SDS011;62267;50.112;8.704;2022-12-11T02:42:33;28.63;;;18.67;;
1262;SDS011;62267;50.112;8.704;2022-12-11T02:45:02;36.50;;;21.17;;
1262;SDS011;62267;50.112;8.704;2022-12-11T02:47:30;35.00;;;20.17;;
1262;SDS011;62267;50.112;8.704;2022-12-11T02:50:00;38.10;;;21.10;;
1262;SDS011;62267;50.112;8.704;2022-12-11T02:52:28;37.83;;;21.17;;
1262;SDS011;62267;50.112;8.704;2022-12-11T02:54:57;37.67;;;20.53;;
1262;SDS011;62267;50.112;8.704;2022-12-11T02:57:30;29.30;;;19.47;;
1262;SDS011;62267;50.112;8.704;2022-12-11T02:59:59;32.33;;;19.00;;
1262;SDS011;62267;50.112;8.704;2022-12-11T03:02:26;33.97;;;19.47;;
1262;SDS011;62267;50.112;8.704;2022-12-11T03:04:54;34.37;;;21.27;;
1262;SDS011;62267;50.112;8.704;2022-12-11T03:07:24;38.73;;;21.93;;
1262;SDS011;62267;50.112;8.704;2022-12-11T03:09:52;35.27;;;20.87;;
1262;SDS011;62267;50.112;8.704;2022-12-11T03:12:21;33.97;;;21.20;;
1262;SDS011;62267;50.112;8.704;2022-12-11T03:14:50;41.53;;;22.33;;
1262;SDS011;62267;50.112;8.704;2022-12-11T03:17:21;34.57;;;21.37;;
1262;SDS011;62267;50.112;8.704;2022-12-11T03:22:30;35.50;;;22.37;;
1262;SDS011;62267;50.112;8.704;2022-12-11T03:25:02;33.27;;;22.23;;
1262;SDS011;62267;50.112;8.704;2022-12-11T03:27:47;33.20;;;19.40;;
1262;SDS011;62267;50.112;8.704;2022-12-11T03:30:17;34.20;;;20.97;;
1262;SDS011;62267;50.112;8.704;2022-12-11T03:32:49;35.63;;;21.70;;
1262;SDS011;62267;50.112;8.704;2022-12-11T03:35:24;37.57;;;21.70;;
1262;SDS011;62267;50.112;8.704;2022-12-11T03:37:52;36.97;;;20.63;;
1262;SDS011;62267;50.112;8.704;2022-12-11T03:40:20;35.30;;;21.40;;
1262;SDS011;62267;50.112;8.704;2022-12-11T03:42:50;41.47;;;23.13;;
1262;SDS011;62267;50.112;8.704;2022-12-11T03:45:18;32.93;;;22.00;;
1262;SDS011;62267;50.112;8.704;2022-12-11T03:47:45;41.63;;;23.70;;
1262;SDS011;62267;50.112;8.704;2022-12-11T03:50:14;33.07;;;20.33;;
1262;SDS011;62267;50.112;8.704;2022-12-11T03:52:42;38.90;;;22.10;;
1262;SDS011;62267;50.112;8.704;2022-12-11T03:55:12;35.87;;;21.57;;
1262;SDS011;62267;50.112;8.704;2022-12-11T03:57:40;38.60;;;21.30;;
1262;SDS011;62267;50.112;8.704;2022-12-11T04:00:08;38.17;;;22.47;;
1262;SDS011;62267;50.112;8.704;2022-12-11T04:02:39;34.73;;;19.67;;
1262;SDS011;62267;50.112;8.704;2022-12-11T04:05:07;38.20;;;21.83;;
1262;SDS011;62267;50.112;8.704;2022-12-11T04:07:35;32.10;;;20.00;;
1262;SDS011;62267;50.112;8.704;2022-12-11T04:10:03;34.13;;;20.50;;
1262;SDS011;62267;50.112;8.704;2022-12-11T04:12:30;34.83;;;20.30;;
1262;SDS011;62267;50.112;8.704;2022-12-11T04:14:57;40.80;;;21.50;;
1262;SDS011;62267;50.112;8.704;2022-12-11T04:17:33;32.30;;;20.50;;
1262;SDS011;62267;50.112;8.704;2022-12-11T04:20:20;35.70;;;21.97;;
1262;SDS011;62267;50.112;8.704;2022-12-11T04:23:08;44.17;;;23.13;;
1262;SDS011;62267;50.112;8.704;2022-12-11T04:26:06;40.97;;;22.80;;
1262;SDS011;62267;50.112;8.704;2022-12-11T04:28:33;40.07;;;22.83;;
1262;SDS011;62267;50.112;8.704;2022-12-11T04:31:01;39.70;;;21.50;;
1262;SDS011;62267;50.112;8.704;2022-12-11T04:33:28;36.73;;;21.57;;
1262;SDS011;62267;50.112;8.704;2022-12-11T04:35:56;42.77;;;23.37;;
1262;SDS011;62267;50.112;8.704;2022-12-11T04:38:23;34.47;;;22.67;;
1262;SDS011;62267;50.112;8.704;2022-12-11T04:41:07;45.83;;;22.73;;
1262;SDS011;62267;50.112;8.704;2022-12-11T04:43:35;39.60;;;22.70;;
1262;SDS011;62267;50.112;8.704;2022-12-11T04:46:09;44.70;;;22.33;;
1262;SDS011;62267;50.112;8.704;2022-12-11T04:48:37;39.07;;;22.13;;
1262;SDS011;62267;50.112;8.704;2022-12-11T04:51:05;41.90;;;24.27;;
1262;SDS011;62267;50.112;8.704;2022-12-11T04:53:32;42.57;;;23.67;;
1262;SDS011;62267;50.112;8.704;2022-12-11T04:55:59;35.83;;;21.83;;
1262;SDS011;62267;50.112;8.704;2022-12-11T04:58:27;41.27;;;23.83;;
1262;SDS011;62267;50.112;8.704;2022-12-11T05:00:54;36.57;;;21.77;;
1262;SDS011;62267;50.112;8.704;2022-12-11T05:03:22;33.80;;;22.10;;
1262;SDS011;62267;50.112;8.704;2022-12-11T05:05:51;42.13;;;22.97;;
1262;SDS011;62267;50.112;8.704;2022-12-11T05:08:18;40.93;;;22.63;;
1262;SDS011;62267;50.112;8.704;2022-12-11T05:10:59;34.07;;;21.30;;
1262;SDS011;62267;50.112;8.704;2022-12-11T05:13:27;40.23;;;22.40;;
1262;SDS011;62267;50.112;8.704;2022-12-11T05:15:55;42.87;;;22.80;;
1262;SDS011;62267;50.112;8.704;2022-12-11T05:18:23;38.70;;;21.60;;
1262;SDS011;62267;50.112;8.704;2022-12-11T05:20:57;35.37;;;21.10;;
1262;SDS011;62267;50.112;8.704;2022-12-11T05:23:25;43.90;;;24.37;;
1262;SDS011;62267;50.112;8.704;2022-12-11T05:25:56;41.37;;;23.90;;
1262;SDS011;62267;50.112;8.704;2022-12-11T05:28:24;39.00;;;22.67;;
1262;SDS011;62267;50.112;8.704;2022-12-11T05:30:55;37.50;;;21.83;;
1262;SDS011;62267;50.112;8.704;2022-12-11T05:33:23;42.60;;;22.17;;
1262;SDS011;62267;50.112;8.704;2022-12-11T05:35:51;42.70;;;23.70;;
1262;SDS011;62267;50.112;8.704;2022-12-11T05:38:18;44.57;;;25.90;;
1262;SDS011;62267;50.112;8.704;2022-12-11T05:40:54;35.20;;;23.50;;
1262;SDS011;62267;50.112;8.704;2022-12-11T05:43:21;35.80;;;21.07;;
1262;SDS011;62267;50.112;8.704;2022-12-11T05:45:49;45.90;;;25.00;;
1262;SDS011;62267;50.112;8.704;2022-12-11T05:48:16;38.40;;;22.80;;
1262;SDS011;62267;50.112;8.704;2022-12-11T05:50:43;43.67;;;24.23;;
1262;SDS011;62267;50.112;8.704;2022-12-11T05:53:10;36.37;;;22.87;;
1262;SDS011;62267;50.112;8.704;2022-12-11T05:55:38;45.77;;;24.47;;
1262;SDS011;62267;50.112;8.704;2022-12-11T05:58:05;39.30;;;23.60;;
1262;SDS011;62267;50.112;8.704;2022-12-11T06:00:34;35.93;;;21.87;;
1262;SDS011;62267;50.112;8.704;2022-12-11T06:03:02;43.93;;;24.90;;
1262;SDS011;62267;50.112;8.704;2022-12-11T06:05:29;42.80;;;22.93;;
1262;SDS011;62267;50.112;8.704;2022-12-11T06:07:56;45.97;;;24.60;;
1262;SDS011;62267;50.112;8.704;2022-12-11T06:10:25;40.17;;;22.50;;
1262;SDS011;62267;50.112;8.704;2022-12-11T06:12:52;45.90;;;23.37;;
1262;SDS011;62267;50.112;8.704;2022-12-11T06:15:19;33.53;;;21.07;;
1262;SDS011;62267;50.112;8.704;2022-12-11T06:17:47;45.40;;;24.60;;
1262;SDS011;62267;50.112;8.704;2022-12-11T06:20:14;44.10;;;23.87;;
1262;SDS011;62267;50.112;8.704;2022-12-11T06:22:41;41.30;;;22.80;;
1262;SDS011;62267;50.112;8.704;2022-12-11T06:25:08;40.07;;;23.37;;
1262;SDS011;62267;50.112;8.704;2022-12-11T06:27:36;42.63;;;22.23;;
1262;SDS011;62267;50.112;8.704;2022-12-11T06:30:03;40.30;;;22.47;;
1262;SDS011;62267;50.112;8.704;2022-12-11T06:32:32;39.70;;;23.60;;
1262;SDS011;62267;50.112;8.704;2022-12-11T06:34:59;36.77;;;22.47;;
1262;SDS011;62267;50.112;8.704;2022-12-11T06:37:26;44.03;;;23.90;;
1262;SDS011;62267;50.112;8.704;2022-12-11T06:39:53;40.07;;;23.03;;
1262;SDS011;62267;50.112;8.704;2022-12-11T06:42:20;38.77;;;22.60;;
1262;SDS011;62267;50.112;8.704;2022-12-11T06:44:48;43.13;;;23.70;;
1262;SDS011;62267;50.112;8.704;2022-12-11T06:47:15;37.97;;;21.80;;
1262;SDS011;62267;50.112;8.704;2022-12-11T06:49:42;47.40;;;24.47;;
1262;SDS011;62267;50.112;8.704;2022-12-11T06:52:09;35.60;;;21.63;;
1262;SDS011;62267;50.112;8.704;2022-12-11T06:54:43;38.97;;;23.00;;
1262;SDS011;62267;50.112;8.704;2022-12-11T06:57:11;43.80;;;25.20;;
1262;SDS011;62267;50.112;8.704;2022-12-11T06:59:40;41.30;;;23.47;;
1262;SDS011;62267;50.112;8.704;2022-12-11T07:02:14;41.77;;;24.40;;
1262;SDS011;62267;50.112;8.704;2022-12-11T07:04:42;41.90;;;23.60;;
1262;SDS011;62267;50.112;8.704;2022-12-11T07:07:09;42.23;;;24.50;;
1262;SDS011;62267;50.112;8.704;2022-12-11T07:09:37;45.07;;;25.27;;
1262;SDS011;62267;50.112;8.704;2022-12-11T07:12:05;41.70;;;23.20;;
1262;SDS011;62267;50.112;8.704;2022-12-11T07:14:32;37.67;;;23.00;;
1262;SDS011;62267;50.112;8.704;2022-12-11T07:16:59;42.93;;;23.47;;
1262;SDS011;62267;50.112;8.704;2022-12-11T07:19:27;42.03;;;22.57;;
1262;SDS011;62267;50.112;8.704;2022-12-11T07:21:54;37.23;;;22.80;;
1262;SDS011;62267;50.112;8.704;2022-12-11T07:24:21;42.40;;;23.13;;
1262;SDS011;62267;50.112;8.704;2022-12-11T07:26:49;44.63;;;25.00;;
1262;SDS011;62267;50.112;8.704;2022-12-11T07:29:16;44.07;;;22.80;;
1262;SDS011;62267;50.112;8.704;2022-12-11T07:31:43;43.57;;;23.23;;
1262;SDS011;62267;50.112;8.704;2022-12-11T07:34:11;39.83;;;24.20;;
1262;SDS011;62267;50.112;8.704;2022-12-11T07:36:39;46.57;;;24.00;;
1262;SDS011;62267;50.112;8.704;2022-12-11T07:39:06;47.23;;;23.90;;
1262;SDS011;62267;50.112;8.704;2022-12-11T07:41:34;42.80;;;22.87;;
1262;SDS011;62267;50.112;8.704;2022-12-11T07:44:04;40.17;;;22.77;;
1262;SDS011;62267;50.112;8.704;2022-12-11T07:46:32;42.23;;;22.50;;
1262;SDS011;62267;50.112;8.704;2022-12-11T07:49:00;36.17;;;21.33;;
1262;SDS011;62267;50.112;8.704;2022-12-11T07:51:30;39.37;;;22.97;;
1262;SDS011;62267;50.112;8.704;2022-12-11T07:53:58;36.80;;;22.80;;
1262;SDS011;62267;50.112;8.704;2022-12-11T07:56:26;45.20;;;24.40;;
1262;SDS011;62267;50.112;8.704;2022-12-11T07:58:53;41.93;;;25.43;;
1262;SDS011;62267;50.112;8.704;2022-12-11T08:01:22;39.77;;;24.43;;
1262;SDS011;62267;50.112;8.704;2022-12-11T08:03:51;45.23;;;25.50;;
1262;SDS011;62267;50.112;8.704;2022-12-11T08:06:24;44.27;;;25.47;;
1262;SDS011;62267;50.112;8.704;2022-12-11T08:08:52;49.93;;;25.63;;
1262;SDS011;62267;50.112;8.704;2022-12-11T08:11:20;46.70;;;25.43;;
1262;SDS011;62267;50.112;8.704;2022-12-11T08:13:47;44.27;;;26.17;;
1262;SDS011;62267;50.112;8.704;2022-12-11T08:16:15;45.37;;;25.40;;
1262;SDS011;62267;50.112;8.704;2022-12-11T08:18:44;51.43;;;26.40;;
1262;SDS011;62267;50.112;8.704;2022-12-11T08:21:12;49.63;;;25.90;;
1262;SDS011;62267;50.112;8.704;2022-12-11T08:23:40;47.67;;;25.50;;
1262;SDS011;62267;50.112;8.704;2022-12-11T08:26:09;51.10;;;27.83;;
1262;SDS011;62267;50.112;8.704;2022-12-11T08:28:36;50.70;;;26.20;;
1262;SDS011;62267;50.112;8.704;2022-12-11T08:31:04;47.20;;;26.63;;
1262;SDS011;62267;50.112;8.704;2022-12-11T08:33:32;41.50;;;24.17;;
1262;SDS011;62267;50.112;8.704;2022-12-11T08:36:03;45.97;;;26.10;;
1262;SDS011;62267;50.112;8.704;2022-12-11T08:38:30;43.60;;;25.67;;
1262;SDS011;62267;50.112;8.704;2022-12-11T08:40:57;52.73;;;27.83;;
1262;SDS011;62267;50.112;8.704;2022-12-11T08:43:24;46.17;;;26.60;;
1262;SDS011;62267;50.112;8.704;2022-12-11T08:45:52;49.67;;;26.00;;
1262;SDS011;62267;50.112;8.704;2022-12-11T08:48:19;54.13;;;26.80;;
1262;SDS011;62267;50.112;8.704;2022-12-11T08:50:47;46.60;;;26.83;;
1262;SDS011;62267;50.112;8.704;2022-12-11T08:53:14;54.60;;;26.60;;
1262;SDS011;62267;50.112;8.704;2022-12-11T08:55:42;47.13;;;26.17;;
1262;SDS011;62267;50.112;8.704;2022-12-11T08:58:09;48.20;;;26.30;;
1262;SDS011;62267;50.112;8.704;2022-12-11T09:00:36;44.10;;;26.40;;
1262;SDS011;62267;50.112;8.704;2022-12-11T09:03:03;49.67;;;27.00;;
1262;SDS011;62267;50.112;8.704;2022-12-11T09:05:37;42.80;;;26.70;;
1262;SDS011;62267;50.112;8.704;2022-12-11T09:08:05;48.77;;;26.20;;
1262;SDS011;62267;50.112;8.704;2022-12-11T09:10:32;54.60;;;28.90;;
1262;SDS011;62267;50.112;8.704;2022-12-11T09:12:59;48.83;;;28.27;;
1262;SDS011;62267;50.112;8.704;2022-12-11T09:15:27;54.40;;;27.77;;
1262;SDS011;62267;50.112;8.704;2022-12-11T09:17:54;49.00;;;26.47;;
1262;SDS011;62267;50.112;8.704;2022-12-11T09:20:21;48.17;;;27.30;;
1262;SDS011;62267;50.112;8.704;2022-12-11T09:22:48;48.73;;;27.10;;
1262;SDS011;62267;50.112;8.704;2022-12-11T09:25:15;52.13;;;27.30;;
1262;SDS011;62267;50.112;8.704;2022-12-11T09:27:45;53.00;;;27.20;;
1262;SDS011;62267;50.112;8.704;2022-12-11T09:30:12;51.83;;;27.57;;
1262;SDS011;62267;50.112;8.704;2022-12-11T09:32:40;54.90;;;29.33;;
1262;SDS011;62267;50.112;8.704;2022-12-11T09:35:08;49.27;;;28.37;;
1262;SDS011;62267;50.112;8.704;2022-12-11T09:37:36;52.00;;;27.40;;
1262;SDS011;62267;50.112;8.704;2022-12-11T09:40:04;59.70;;;31.30;;
1262;SDS011;62267;50.112;8.704;2022-12-11T09:42:44;55.73;;;29.60;;
1262;SDS011;62267;50.112;8.704;2022-12-11T09:45:13;54.30;;;29.33;;
1262;SDS011;62267;50.112;8.704;2022-12-11T09:47:44;53.97;;;30.20;;
1262;SDS011;62267;50.112;8.704;2022-12-11T09:50:25;50.63;;;29.07;;
1262;SDS011;62267;50.112;8.704;2022-12-11T09:55:20;53.07;;;26.60;;
1262;SDS011;62267;50.112;8.704;2022-12-11T10:00:23;52.83;;;29.43;;
1262;SDS011;62267;50.112;8.704;2022-12-11T10:03:08;47.63;;;26.13;;
1262;SDS011;62267;50.112;8.704;2022-12-11T10:05:44;50.57;;;27.23;;
1262;SDS011;62267;50.112;8.704;2022-12-11T10:08:16;54.80;;;29.00;;
1262;SDS011;62267;50.112;8.704;2022-12-11T10:10:57;49.80;;;29.90;;
1262;SDS011;62267;50.112;8.704;2022-12-11T10:15:58;56.03;;;28.57;;
1262;SDS011;62267;50.112;8.704;2022-12-11T10:18:27;52.27;;;30.10;;
1262;SDS011;62267;50.112;8.704;2022-12-11T10:20:56;55.20;;;27.73;;
1262;SDS011;62267;50.112;8.704;2022-12-11T10:23:29;55.33;;;29.30;;
1262;SDS011;62267;50.112;8.704;2022-12-11T10:26:03;49.90;;;26.53;;
1262;SDS011;62267;50.112;8.704;2022-12-11T10:28:30;57.03;;;29.57;;
1262;SDS011;62267;50.112;8.704;2022-12-11T10:31:01;45.03;;;25.93;;
1262;SDS011;62267;50.112;8.704;2022-12-11T10:33:33;50.90;;;26.67;;
1262;SDS011;62267;50.112;8.704;2022-12-11T10:36:03;48.40;;;26.27;;
1262;SDS011;62267;50.112;8.704;2022-12-11T10:38:35;54.00;;;29.33;;
1262;SDS011;62267;50.112;8.704;2022-12-11T10:41:08;47.70;;;27.93;;
1262;SDS011;62267;50.112;8.704;2022-12-11T10:43:41;48.73;;;26.40;;
1262;SDS011;62267;50.112;8.704;2022-12-11T10:46:15;57.17;;;29.47;;
1262;SDS011;62267;50.112;8.704;2022-12-11T10:48:47;49.03;;;26.50;;
1262;SDS011;62267;50.112;8.704;2022-12-11T10:51:15;51.90;;;27.80;;
1262;SDS011;62267;50.112;8.704;2022-12-11T10:53:42;54.60;;;29.67;;
1262;SDS011;62267;50.112;8.704;2022-12-11T10:56:10;49.30;;;28.83;;
1262;SDS011;62267;50.112;8.704;2022-12-11T10:58:38;60.23;;;29.17;;
1262;SDS011;62267;50.112;8.704;2022-12-11T11:01:14;48.83;;;28.70;;
1262;SDS011;62267;50.112;8.704;2022-12-11T11:04:04;60.03;;;31.83;;
1262;SDS011;62267;50.112;8.704;2022-12-11T11:06:29;51.20;;;29.07;;
1262;SDS011;62267;50.112;8.704;2022-12-11T11:08:58;58.57;;;30.30;;
1262;SDS011;62267;50.112;8.704;2022-12-11T11:14:13;62.30;;;31.47;;
1262;SDS011;62267;50.112;8.704;2022-12-11T11:16:41;51.30;;;29.33;;
1262;SDS011;62267;50.112;8.704;2022-12-11T11:19:23;56.93;;;31.30;;
1262;SDS011;62267;50.112;8.704;2022-12-11T11:21:51;62.00;;;30.30;;
1262;SDS011;62267;50.112;8.704;2022-12-11T11:24:23;54.37;;;29.07;;
1262;SDS011;62267;50.112;8.704;2022-12-11T11:26:52;61.20;;;30.90;;
1262;SDS011;62267;50.112;8.704;2022-12-11T11:29:40;56.93;;;31.47;;
1262;SDS011;62267;50.112;8.704;2022-12-11T11:32:13;59.30;;;28.13;;
1262;SDS011;62267;50.112;8.704;2022-12-11T11:34:41;58.43;;;29.00;;
1262;SDS011;62267;50.112;8.704;2022-12-11T11:39:56;57.23;;;29.77;;
1262;SDS011;62267;50.112;8.704;2022-12-11T11:42:29;57.20;;;29.77;;
1262;SDS011;62267;50.112;8.704;2022-12-11T11:45:04;57.60;;;28.50;;
1262;SDS011;62267;50.112;8.704;2022-12-11T11:47:33;53.27;;;29.13;;
1262;SDS011;62267;50.112;8.704;2022-12-11T11:50:05;53.30;;;27.43;;
1262;SDS011;62267;50.112;8.704;2022-12-11T11:52:39;54.27;;;26.53;;
1262;SDS011;62267;50.112;8.704;2022-12-11T11:55:19;45.90;;;24.33;;
1262;SDS011;62267;50.112;8.704;2022-12-11T11:57:56;43.47;;;24.10;;
1262;SDS011;62267;50.112;8.704;2022-12-11T12:00:26;50.80;;;26.10;;
1262;SDS011;62267;50.112;8.704;2022-12-11T12:03:00;50.73;;;26.30;;
1262;SDS011;62267;50.112;8.704;2022-12-11T12:05:33;48.37;;;27.00;;
1262;SDS011;62267;50.112;8.704;2022-12-11T12:08:08;45.43;;;24.30;;
1262;SDS011;62267;50.112;8.704;2022-12-11T12:15:55;48.53;;;26.10;;
1262;SDS011;62267;50.112;8.704;2022-12-11T12:19:12;46.50;;;23.07;;
1262;SDS011;62267;50.112;8.704;2022-12-11T12:21:26;43.17;;;24.00;;
1262;SDS011;62267;50.112;8.704;2022-12-11T12:26:45;42.87;;;23.13;;
1262;SDS011;62267;50.112;8.704;2022-12-11T12:29:28;51.23;;;26.40;;
1262;SDS011;62267;50.112;8.704;2022-12-11T12:37:22;40.60;;;22.10;;
1262;SDS011;62267;50.112;8.704;2022-12-11T12:40:13;44.13;;;23.03;;
1262;SDS011;62267;50.112;8.704;2022-12-11T12:42:57;46.03;;;24.23;;
1262;SDS011;62267;50.112;8.704;2022-12-11T12:45:27;45.63;;;25.50;;
1262;SDS011;62267;50.112;8.704;2022-12-11T12:47:56;40.10;;;21.80;;
1262;SDS011;62267;50.112;8.704;2022-12-11T12:50:24;42.60;;;26.13;;
1262;SDS011;62267;50.112;8.704;2022-12-11T12:52:53;47.10;;;25.97;;
1262;SDS011;62267;50.112;8.704;2022-12-11T12:55:22;45.47;;;26.93;;
1262;SDS011;62267;50.112;8.704;2022-12-11T12:57:54;45.50;;;24.20;;
1262;SDS011;62267;50.112;8.704;2022-12-11T13:02:53;44.53;;;25.00;;
1262;SDS011;62267;50.112;8.704;2022-12-11T13:05:28;39.50;;;22.93;;
1262;SDS011;62267;50.112;8.704;2022-12-11T13:07:58;40.50;;;22.67;;
1262;SDS011;62267;50.112;8.704;2022-12-11T13:10:32;39.30;;;21.33;;
1262;SDS011;62267;50.112;8.704;2022-12-11T13:13:00;44.80;;;22.57;;
1262;SDS011;62267;50.112;8.704;2022-12-11T13:15:33;36.97;;;20.40;;
1262;SDS011;62267;50.112;8.704;2022-12-11T13:18:02;31.70;;;17.60;;
1262;SDS011;62267;50.112;8.704;2022-12-11T13:20:30;42.03;;;22.40;;
1262;SDS011;62267;50.112;8.704;2022-12-11T13:25:49;40.47;;;22.13;;
1262;SDS011;62267;50.112;8.704;2022-12-11T13:31:07;45.43;;;22.13;;
1262;SDS011;62267;50.112;8.704;2022-12-11T13:33:49;39.30;;;21.53;;
1262;SDS011;62267;50.112;8.704;2022-12-11T13:39:07;35.43;;;20.50;;
1262;SDS011;62267;50.112;8.704;2022-12-11T13:41:36;32.60;;;19.80;;
1262;SDS011;62267;50.112;8.704;2022-12-11T13:44:04;39.03;;;21.77;;
1262;SDS011;62267;50.112;8.704;2022-12-11T13:46:33;42.93;;;20.67;;
1262;SDS011;62267;50.112;8.704;2022-12-11T13:49:02;42.37;;;22.50;;
1262;SDS011;62267;50.112;8.704;2022-12-11T13:51:31;38.70;;;20.30;;
1262;SDS011;62267;50.112;8.704;2022-12-11T13:54:04;40.90;;;21.13;;
1262;SDS011;62267;50.112;8.704;2022-12-11T13:56:32;38.17;;;21.10;;
1262;SDS011;62267;50.112;8.704;2022-12-11T13:58:59;42.17;;;21.60;;
1262;SDS011;62267;50.112;8.704;2022-12-11T14:01:28;41.10;;;23.17;;
1262;SDS011;62267;50.112;8.704;2022-12-11T14:03:57;41.93;;;23.40;;
1262;SDS011;62267;50.112;8.704;2022-12-11T14:06:25;37.77;;;21.83;;
1262;SDS011;62267;50.112;8.704;2022-12-11T14:08:54;37.43;;;20.23;;
1262;SDS011;62267;50.112;8.704;2022-12-11T14:11:35;40.90;;;21.73;;
1262;SDS011;62267;50.112;8.704;2022-12-11T14:14:04;34.23;;;18.67;;
1262;SDS011;62267;50.112;8.704;2022-12-11T14:16:32;36.60;;;21.67;;
1262;SDS011;62267;50.112;8.704;2022-12-11T14:19:06;42.00;;;22.27;;
1262;SDS011;62267;50.112;8.704;2022-12-11T14:21:35;38.03;;;21.60;;
1262;SDS011;62267;50.112;8.704;2022-12-11T14:24:02;35.50;;;19.37;;
1262;SDS011;62267;50.112;8.704;2022-12-11T14:26:32;41.40;;;21.73;;
1262;SDS011;62267;50.112;8.704;2022-12-11T14:29:00;40.07;;;22.77;;
1262;SDS011;62267;50.112;8.704;2022-12-11T14:31:40;38.30;;;21.23;;
1262;SDS011;62267;50.112;8.704;2022-12-11T14:36:39;34.43;;;20.13;;
1262;SDS011;62267;50.112;8.704;2022-12-11T14:39:11;37.33;;;20.80;;
1262;SDS011;62267;50.112;8.704;2022-12-11T14:41:59;43.33;;;21.20;;
1262;SDS011;62267;50.112;8.704;2022-12-11T14:44:30;35.50;;;21.50;;
1262;SDS011;62267;50.112;8.704;2022-12-11T14:47:02;39.80;;;21.13;;
1262;SDS011;62267;50.112;8.704;2022-12-11T14:49:37;38.37;;;21.17;;
1262;SDS011;62267;50.112;8.704;2022-12-11T14:52:06;41.97;;;21.60;;
1262;SDS011;62267;50.112;8.704;2022-12-11T14:54:40;39.30;;;21.87;;
1262;SDS011;62267;50.112;8.704;2022-12-11T14:57:20;35.30;;;21.37;;
1262;SDS011;62267;50.112;8.704;2022-12-11T14:59:49;45.13;;;21.17;;
1262;SDS011;62267;50.112;8.704;2022-12-11T15:02:28;39.90;;;22.33;;
1262;SDS011;62267;50.112;8.704;2022-12-11T15:07:29;36.67;;;20.57;;
1262;SDS011;62267;50.112;8.704;2022-12-11T15:09:56;42.77;;;22.57;;
1262;SDS011;62267;50.112;8.704;2022-12-11T15:12:24;38.90;;;22.10;;
1262;SDS011;62267;50.112;8.704;2022-12-11T15:14:53;37.27;;;19.33;;
1262;SDS011;62267;50.112;8.704;2022-12-11T15:17:21;32.97;;;18.70;;
1262;SDS011;62267;50.112;8.704;2022-12-11T15:19:49;35.27;;;17.53;;
1262;SDS011;62267;50.112;8.704;2022-12-11T15:22:19;35.73;;;18.80;;
1262;SDS011;62267;50.112;8.704;2022-12-11T15:24:49;39.57;;;20.20;;
1262;SDS011;62267;50.112;8.704;2022-12-11T15:27:24;41.37;;;19.93;;
1262;SDS011;62267;50.112;8.704;2022-12-11T15:29:56;35.00;;;20.50;;
1262;SDS011;62267;50.112;8.704;2022-12-11T15:32:24;44.00;;;23.53;;
1262;SDS011;62267;50.112;8.704;2022-12-11T15:34:53;42.67;;;21.63;;
1262;SDS011;62267;50.112;8.704;2022-12-11T15:37:22;37.20;;;19.40;;
1262;SDS011;62267;50.112;8.704;2022-12-11T15:39:49;42.23;;;21.10;;
1262;SDS011;62267;50.112;8.704;2022-12-11T15:44:51;43.40;;;23.40;;
1262;SDS011;62267;50.112;8.704;2022-12-11T15:47:23;35.00;;;21.63;;
1262;SDS011;62267;50.112;8.704;2022-12-11T15:50:24;39.30;;;21.93;;
1262;SDS011;62267;50.112;8.704;2022-12-11T15:52:43;40.77;;;21.90;;